createdAt,value
2022-09-15T00:02:31.335Z,97573.25
2022-09-15T00:05:34.098Z,97565.38
2022-09-15T00:08:36.836Z,97556.31
2022-09-15T00:11:39.474Z,97555.53
2022-09-15T00:14:43.418Z,97549.66
2022-09-15T00:17:49.933Z,97542.19
2022-09-15T00:20:53.039Z,97537.91
2022-09-15T00:23:55.699Z,97542.28
2022-09-15T00:26:58.305Z,97540.72
2022-09-15T00:30:02.454Z,97538.75
2022-09-15T00:33:05.180Z,97547.44
2022-09-15T00:36:12.177Z,97533.56
2022-09-15T00:39:14.797Z,97540.63
2022-09-15T00:42:18.527Z,97545.31
2022-09-15T00:45:22.698Z,97537.75
2022-09-15T00:48:25.229Z,97537.38
2022-09-15T00:51:33.999Z,97539.38
2022-09-15T00:54:38.917Z,97541.75
2022-09-15T00:57:45.137Z,97537.34
2022-09-15T01:00:52.488Z,97549.53
2022-09-15T01:03:56.041Z,97547.59
2022-09-15T01:07:01.313Z,97537.72
2022-09-15T01:10:06.726Z,97545.69
2022-09-15T01:13:10.990Z,97548.97
2022-09-15T01:16:20.758Z,97544.66
2022-09-15T01:20:08.072Z,97538.84
2022-09-15T01:23:27.748Z,97552.28
2022-09-15T01:27:24.126Z,97546.31
2022-09-15T01:30:30.941Z,97530.41
2022-09-15T01:33:38.666Z,97516.66
2022-09-15T01:36:44.718Z,97514.69
2022-09-15T01:39:50.123Z,97513.91
2022-09-15T01:42:54.334Z,97504.84
2022-09-15T01:45:58.685Z,97505.28
2022-09-15T01:49:02.296Z,97516.78
2022-09-15T01:52:05.252Z,97504.13
2022-09-15T01:55:14.093Z,97503.72
2022-09-15T01:58:16.760Z,97501.38
2022-09-15T02:01:32.042Z,97505.31
2022-09-15T02:04:39.003Z,97504.13
2022-09-15T02:07:47.473Z,97502.47
2022-09-15T02:10:58.865Z,97497.59
2022-09-15T02:14:11.508Z,97484.44
2022-09-15T02:17:18.966Z,97493.94
2022-09-15T02:20:25.640Z,97504.94
2022-09-15T02:23:31.319Z,97504.88
2022-09-15T02:26:35.705Z,97502.91
2022-09-15T02:29:39.516Z,97504.59
2022-09-15T02:32:49.218Z,97511.44
2022-09-15T02:35:52.800Z,97511.44
2022-09-15T02:39:00.490Z,97514.97
2022-09-15T02:42:03.096Z,97513.78
2022-09-15T02:45:06.827Z,97501.91
2022-09-15T02:48:10.784Z,97501.50
2022-09-15T02:51:14.312Z,97496.00
2022-09-15T02:54:16.976Z,97504.31
2022-09-15T02:57:19.860Z,97498.47
2022-09-15T03:00:22.669Z,97496.53
2022-09-15T03:03:26.676Z,97496.50
2022-09-15T03:06:34.403Z,97485.47
2022-09-15T03:09:37.377Z,97496.50
2022-09-15T03:12:40.639Z,97498.88
2022-09-15T03:15:43.530Z,97495.72
2022-09-15T03:18:48.345Z,97490.59
2022-09-15T03:21:51.075Z,97489.38
2022-09-15T03:24:53.668Z,97490.50
2022-09-15T03:27:56.252Z,97493.31
2022-09-15T03:30:58.941Z,97491.38
2022-09-15T03:34:02.891Z,97489.81
2022-09-15T03:37:05.474Z,97489.81
2022-09-15T03:40:09.336Z,97485.47
2022-09-15T03:43:16.632Z,97486.25
2022-09-15T03:46:22.187Z,97475.19
2022-09-15T03:49:26.527Z,97480.72
2022-09-15T03:52:31.912Z,97483.91
2022-09-15T03:55:34.486Z,97486.31
2022-09-15T03:58:37.142Z,97484.34
2022-09-15T04:01:40.032Z,97491.47
2022-09-15T04:04:44.130Z,97496.59
2022-09-15T04:07:46.728Z,97498.97
2022-09-15T04:10:49.337Z,97488.34
2022-09-15T04:13:53.690Z,97485.13
2022-09-15T04:16:56.313Z,97490.28
2022-09-15T04:23:02.655Z,97478.03
2022-09-15T04:26:07.462Z,97487.88
2022-09-15T04:29:14.036Z,97491.00
2022-09-15T04:32:16.635Z,97485.16
2022-09-15T04:35:22.155Z,97479.72
2022-09-15T04:38:24.757Z,97484.09
2022-09-15T04:41:29.032Z,97483.28
2022-09-15T04:44:31.833Z,97472.63
2022-09-15T04:47:34.475Z,97476.97
2022-09-15T04:50:40.582Z,97474.19
2022-09-15T04:53:43.316Z,97476.16
2022-09-15T04:56:46.157Z,97488.00
2022-09-15T04:59:49.142Z,97493.50
2022-09-15T05:02:51.742Z,97495.06
2022-09-15T05:05:55.727Z,97497.38
2022-09-15T05:08:58.857Z,97505.66
2022-09-15T05:12:01.737Z,97506.41
2022-09-15T05:15:04.906Z,97517.81
2022-09-15T05:18:07.735Z,97517.78
2022-09-15T05:21:13.692Z,97523.31
2022-09-15T05:24:16.654Z,97524.84
2022-09-15T05:27:20.269Z,97517.44
2022-09-15T05:30:42.485Z,97512.34
2022-09-15T05:33:46.191Z,97524.94
2022-09-15T05:36:49.966Z,97526.44
2022-09-15T05:39:52.581Z,97524.03
2022-09-15T05:42:55.307Z,97517.25
2022-09-15T05:45:57.984Z,97520.38
2022-09-15T05:49:00.655Z,97516.03
2022-09-15T05:52:05.168Z,97520.00
2022-09-15T05:55:10.044Z,97524.38
2022-09-15T05:58:12.814Z,97525.13
2022-09-15T06:01:17.667Z,97515.19
2022-09-15T06:04:20.335Z,97515.53
2022-09-15T06:07:24.365Z,97516.31
2022-09-15T06:10:27.245Z,97522.34
2022-09-15T06:13:30.170Z,97520.22
2022-09-15T06:16:34.493Z,97514.13
2022-09-15T06:19:37.393Z,97517.25
2022-09-15T06:22:41.397Z,97513.97
2022-09-15T06:25:44.245Z,97518.31
2022-09-15T06:28:49.670Z,97524.22
2022-09-15T06:31:52.324Z,97535.94
2022-09-15T06:34:55.201Z,97540.94
2022-09-15T06:37:59.128Z,97540.81
2022-09-15T06:41:01.715Z,97543.63
2022-09-15T06:44:04.660Z,97541.69
2022-09-15T06:47:07.441Z,97550.38
2022-09-15T06:50:10.506Z,97561.03
2022-09-15T06:53:14.489Z,97568.09
2022-09-15T06:56:19.216Z,97571.66
2022-09-15T06:59:23.893Z,97584.31
2022-09-15T07:02:26.819Z,97574.41
2022-09-15T07:05:30.708Z,97568.91
2022-09-15T07:08:35.317Z,97568.50
2022-09-15T07:11:37.980Z,97571.28
2022-09-15T07:14:40.637Z,97573.66
2022-09-15T07:17:43.232Z,97576.81
2022-09-15T07:20:46.009Z,97583.50
2022-09-15T07:23:50.307Z,97583.09
2022-09-15T07:26:52.985Z,97583.50
2022-09-15T07:29:55.650Z,97581.94
2022-09-15T07:32:58.340Z,97582.75
2022-09-15T07:39:30.896Z,97594.56
2022-09-15T07:42:35.561Z,97591.41
2022-09-15T07:45:38.425Z,97589.06
2022-09-15T07:48:41.173Z,97595.34
2022-09-15T07:51:43.801Z,97596.56
2022-09-15T07:54:47.741Z,97600.09
2022-09-15T07:57:57.518Z,97597.72
2022-09-15T08:01:03.023Z,97604.81
2022-09-15T08:04:05.642Z,97604.44
2022-09-15T08:07:08.315Z,97607.97
2022-09-15T08:10:12.397Z,97607.16
2022-09-15T08:13:15.093Z,97611.50
2022-09-15T08:16:19.608Z,97603.63
2022-09-15T08:19:22.390Z,97612.69
2022-09-15T08:22:25.024Z,97621.78
2022-09-15T08:25:28.911Z,97622.19
2022-09-15T08:28:31.624Z,97624.16
2022-09-15T08:31:34.248Z,97628.88
2022-09-15T08:34:36.929Z,97629.28
2022-09-15T08:37:39.861Z,97640.75
2022-09-15T08:40:45.478Z,97628.13
2022-09-15T08:43:52.762Z,97625.75
2022-09-15T08:47:00.070Z,97627.72
2022-09-15T08:50:05.814Z,97639.94
2022-09-15T08:53:12.824Z,97641.16
2022-09-15T08:56:18.782Z,97640.75
2022-09-15T08:59:21.938Z,97649.41
2022-09-15T09:02:52.040Z,97644.91
2022-09-15T09:05:59.059Z,97643.84
2022-09-15T09:09:06.532Z,97658.47
2022-09-15T09:12:41.038Z,97656.47
2022-09-15T09:15:54.655Z,97651.50
2022-09-15T09:19:13.629Z,97659.50
2022-09-15T09:22:19.675Z,97654.78
2022-09-15T09:25:27.990Z,97654.16
2022-09-15T09:28:33.730Z,97656.19
2022-09-15T09:31:37.729Z,97657.19
2022-09-15T09:34:44.328Z,97663.28
2022-09-15T09:37:47.061Z,97659.19
2022-09-15T09:40:50.310Z,97670.78
2022-09-15T09:43:54.322Z,97671.72
2022-09-15T09:46:56.891Z,97670.25
2022-09-15T09:49:59.791Z,97668.66
2022-09-15T09:53:19.811Z,97670.25
2022-09-15T09:56:25.466Z,97661.59
2022-09-15T09:59:41.155Z,97662.47
2022-09-15T10:02:47.928Z,97667.19
2022-09-15T10:06:05.357Z,97669.16
2022-09-15T10:09:10.983Z,97663.53
2022-09-15T10:12:20.067Z,97661.84
2022-09-15T10:15:25.974Z,97667.81
2022-09-15T10:18:32.948Z,97673.16
2022-09-15T10:21:39.652Z,97671.59
2022-09-15T10:24:42.848Z,97679.47
2022-09-15T10:27:45.483Z,97682.88
2022-09-15T10:31:03.104Z,97684.03
2022-09-15T10:34:27.758Z,97685.59
2022-09-15T10:37:44.874Z,97698.41
2022-09-15T10:40:51.668Z,97699.94
2022-09-15T10:44:27.550Z,97717.13
2022-09-15T10:47:42.728Z,97724.31
2022-09-15T10:50:55.541Z,97725.97
2022-09-15T10:54:09.736Z,97727.47
2022-09-15T10:57:23.547Z,97731.78
2022-09-15T11:00:30.027Z,97733.63
2022-09-15T11:03:52.720Z,97730.50
2022-09-15T11:07:02.354Z,97733.59
2022-09-15T11:10:12.288Z,97737.09
2022-09-15T11:13:20.682Z,97746.19
2022-09-15T11:16:33.240Z,97747.78
2022-09-15T11:19:52.461Z,97753.78
2022-09-15T11:22:58.253Z,97759.66
2022-09-15T11:26:06.357Z,97754.28
2022-09-15T11:29:15.794Z,97760.69
2022-09-15T11:32:22.440Z,97760.09
2022-09-15T11:35:35.966Z,97767.69
2022-09-15T11:38:42.946Z,97768.09
2022-09-15T11:41:49.694Z,97778.59
2022-09-15T11:44:52.700Z,97788.59
2022-09-15T11:47:58.245Z,97785.47
2022-09-15T11:51:03.772Z,97798.38
2022-09-15T11:54:09.822Z,97799.16
2022-09-15T11:57:18.003Z,97805.97
2022-09-15T12:00:21.661Z,97809.00
2022-09-15T12:03:29.856Z,97795.78
2022-09-15T12:06:43.299Z,97810.97
2022-09-15T12:09:49.851Z,97814.00
2022-09-15T12:12:54.357Z,97821.66
2022-09-15T12:15:57.559Z,97826.56
2022-09-15T12:19:04.459Z,97826.16
2022-09-15T12:22:12.585Z,97825.78
2022-09-15T12:25:19.142Z,97828.09
2022-09-15T12:28:28.148Z,97832.00
2022-09-15T12:31:36.189Z,97844.19
2022-09-15T12:34:39.406Z,97845.59
2022-09-15T12:37:46.328Z,97840.09
2022-09-15T12:40:57.889Z,97850.19
2022-09-15T12:44:06.442Z,97855.34
2022-09-15T12:47:26.781Z,97860.38
2022-09-15T12:50:31.780Z,97862.66
2022-09-15T12:53:39.100Z,97853.53
2022-09-15T12:56:51.874Z,97852.69
2022-09-15T13:00:29.822Z,97860.00
2022-09-15T13:04:05.874Z,97865.44
2022-09-15T13:07:53.991Z,97864.16
2022-09-15T13:11:04.181Z,97869.09
2022-09-15T13:14:16.327Z,97861.56
2022-09-15T13:17:22.551Z,97860.69
2022-09-15T13:20:31.828Z,97861.84
2022-09-15T13:23:37.970Z,97863.75
2022-09-15T13:26:44.689Z,97865.72
2022-09-15T13:29:50.115Z,97859.34
2022-09-15T13:32:56.916Z,97864.66
2022-09-15T13:36:11.065Z,97859.38
2022-09-15T13:39:27.955Z,97863.66
2022-09-15T13:42:44.265Z,97867.38
2022-09-15T13:45:59.743Z,97863.75
2022-09-15T13:49:16.631Z,97859.25
2022-09-15T13:52:31.021Z,97865.00
2022-09-15T13:55:35.214Z,97860.78
2022-09-15T13:59:01.549Z,97855.31
2022-09-15T14:02:09.070Z,97860.53
2022-09-15T14:05:13.052Z,97871.72
2022-09-15T14:08:18.209Z,97862.78
2022-09-15T14:11:24.949Z,97868.03
2022-09-15T14:14:37.530Z,97868.31
2022-09-15T14:17:45.790Z,97871.09
2022-09-15T14:20:58.558Z,97869.16
2022-09-15T14:24:05.336Z,97868.34
2022-09-15T14:27:09.815Z,97882.06
2022-09-15T14:30:20.472Z,97867.50
2022-09-15T14:33:23.465Z,97870.91
2022-09-15T14:36:27.936Z,97868.88
2022-09-15T14:39:31.054Z,97862.44
2022-09-15T14:42:35.121Z,97853.97
2022-09-15T14:49:10.834Z,97845.44
2022-09-15T14:52:24.132Z,97846.94
2022-09-15T14:55:29.109Z,97855.13
2022-09-15T14:58:35.837Z,97853.47
2022-09-15T15:01:41.641Z,97862.41
2022-09-15T15:04:46.522Z,97864.91
2022-09-15T15:07:50.131Z,97862.75
2022-09-15T15:10:52.818Z,97858.25
2022-09-15T15:13:56.999Z,97854.84
2022-09-15T15:17:03.035Z,97862.03
2022-09-15T15:20:17.876Z,97857.88
2022-09-15T15:23:23.713Z,97861.66
2022-09-15T15:26:34.394Z,97858.88
2022-09-15T15:29:43.087Z,97860.84
2022-09-15T15:32:47.262Z,97860.97
2022-09-15T15:36:02.393Z,97856.09
2022-09-15T15:39:07.058Z,97853.13
2022-09-15T15:42:16.579Z,97861.22
2022-09-15T15:45:24.799Z,97856.09
2022-09-15T15:48:36.778Z,97863.94
2022-09-15T15:51:40.559Z,97868.00
2022-09-15T15:54:43.323Z,97866.94
2022-09-15T15:57:46.606Z,97857.09
2022-09-15T16:00:51.150Z,97866.28
2022-09-15T16:03:55.885Z,97875.00
2022-09-15T16:06:58.610Z,97866.13
2022-09-15T16:10:01.770Z,97856.00
2022-09-15T16:13:04.382Z,97864.41
2022-09-15T16:16:15.285Z,97862.03
2022-09-15T16:19:19.347Z,97859.34
2022-09-15T16:22:22.380Z,97860.56
2022-09-15T16:25:33.089Z,97862.66
2022-09-15T16:28:35.948Z,97859.97
2022-09-15T16:31:38.918Z,97863.22
2022-09-15T16:34:43.062Z,97866.81
2022-09-15T16:37:46.106Z,97873.28
2022-09-15T16:40:49.219Z,97864.66
2022-09-15T16:43:53.199Z,97872.63
2022-09-15T16:46:56.005Z,97873.03
2022-09-15T16:50:00.223Z,97872.66
2022-09-15T16:53:02.990Z,97878.19
2022-09-15T16:56:07.448Z,97883.72
2022-09-15T16:59:10.139Z,97870.63
2022-09-15T17:02:14.040Z,97876.88
2022-09-15T17:05:22.133Z,97874.91
2022-09-15T17:08:27.188Z,97878.06
2022-09-15T17:11:30.299Z,97886.72
2022-09-15T17:14:32.972Z,97879.59
2022-09-15T17:17:35.654Z,97890.63
2022-09-15T17:20:39.736Z,97896.16
2022-09-15T17:23:44.738Z,97897.72
2022-09-15T17:26:47.657Z,97894.50
2022-09-15T17:29:50.328Z,97894.91
2022-09-15T17:32:53.621Z,97894.88
2022-09-15T17:35:57.641Z,97905.53
2022-09-15T17:39:00.472Z,97904.38
2022-09-15T17:42:03.174Z,97894.50
2022-09-15T17:45:21.972Z,97899.19
2022-09-15T17:48:25.365Z,97897.59
2022-09-15T17:51:29.442Z,97896.44
2022-09-15T17:54:32.444Z,97898.41
2022-09-15T17:57:35.153Z,97903.50
2022-09-15T18:00:40.532Z,97905.91
2022-09-15T18:03:44.509Z,97903.91
2022-09-15T18:06:48.468Z,97903.06
2022-09-15T18:09:51.362Z,97910.16
2022-09-15T18:12:55.613Z,97908.19
2022-09-15T18:15:59.557Z,97911.00
2022-09-15T18:19:02.152Z,97910.16
2022-09-15T18:22:06.097Z,97913.72
2022-09-15T18:25:15.489Z,97922.78
2022-09-15T18:28:19.066Z,97926.75
2022-09-15T18:31:21.840Z,97916.88
2022-09-15T18:34:24.707Z,97928.31
2022-09-15T18:37:28.836Z,97929.47
2022-09-15T18:40:31.446Z,97940.47
2022-09-15T18:43:34.262Z,97936.06
2022-09-15T18:46:39.221Z,97940.31
2022-09-15T18:49:42.168Z,97944.63
2022-09-15T18:52:46.133Z,97950.53
2022-09-15T18:55:48.848Z,97942.94
2022-09-15T18:58:54.322Z,97949.59
2022-09-15T19:01:56.992Z,97948.44
2022-09-15T19:05:00.147Z,97953.19
2022-09-15T19:08:05.247Z,97952.84
2022-09-15T19:11:08.053Z,97952.06
2022-09-15T19:14:10.839Z,97944.47
2022-09-15T19:17:13.779Z,97947.50
2022-09-15T19:20:17.393Z,97949.03
2022-09-15T19:23:21.590Z,97951.59
2022-09-15T19:26:28.591Z,97956.22
2022-09-15T19:29:34.587Z,97959.63
2022-09-15T19:32:37.709Z,97955.63
2022-09-15T19:35:42.924Z,97961.72
2022-09-15T19:38:46.908Z,97957.31
2022-09-15T19:41:49.677Z,97968.63
2022-09-15T19:44:53.106Z,97957.50
2022-09-15T19:47:55.503Z,97954.22
2022-09-15T19:50:58.289Z,97964.19
2022-09-15T19:54:02.431Z,97966.53
2022-09-15T19:57:05.551Z,97964.09
2022-09-15T20:00:10.310Z,97974.25
2022-09-15T20:03:13.018Z,97965.91
2022-09-15T20:06:15.642Z,97970.94
2022-09-15T20:09:19.684Z,97974.38
2022-09-15T20:12:22.416Z,97969.94
2022-09-15T20:15:25.053Z,97973.00
2022-09-15T20:18:27.744Z,97974.16
2022-09-15T20:21:49.408Z,97979.59
2022-09-15T20:24:56.146Z,97986.25
2022-09-15T20:27:59.182Z,97982.28
2022-09-15T20:31:03.531Z,97983.44
2022-09-15T20:34:06.143Z,97987.44
2022-09-15T20:37:09.000Z,97986.16
2022-09-15T20:40:13.093Z,97978.25
2022-09-15T20:43:15.852Z,97988.03
2022-09-15T20:46:20.152Z,97975.75
2022-09-15T20:49:22.920Z,97983.56
2022-09-15T20:52:29.424Z,97980.34
2022-09-15T20:55:33.688Z,97985.81
2022-09-15T20:58:37.248Z,97983.34
2022-09-15T21:01:40.518Z,97986.91
2022-09-15T21:04:43.802Z,97983.25
2022-09-15T21:07:47.122Z,97980.78
2022-09-15T21:10:51.300Z,97982.66
2022-09-15T21:13:54.974Z,97984.56
2022-09-15T21:16:57.735Z,97985.38
2022-09-15T21:20:00.308Z,97983.41
2022-09-15T21:23:04.016Z,97984.41
2022-09-15T21:26:09.200Z,97982.84
2022-09-15T21:29:12.045Z,97986.03
2022-09-15T21:32:14.676Z,97986.75
2022-09-15T21:35:17.422Z,97997.81
2022-09-15T21:38:19.992Z,98003.63
2022-09-15T21:41:26.073Z,98004.28
2022-09-15T21:44:28.720Z,98001.53
2022-09-15T21:47:34.053Z,98006.66
2022-09-15T21:50:36.671Z,98005.13
2022-09-15T21:53:39.954Z,98013.81
2022-09-15T21:56:43.958Z,98008.47
2022-09-15T21:59:47.105Z,98008.91
2022-09-15T22:02:52.477Z,97999.94
2022-09-15T22:05:56.430Z,98003.81
2022-09-15T22:08:59.429Z,97995.53
2022-09-15T22:12:03.566Z,98000.28
2022-09-15T22:15:07.583Z,98000.78
2022-09-15T22:18:10.826Z,98003.81
2022-09-15T22:21:14.793Z,98009.31
2022-09-15T22:24:18.093Z,98010.06
2022-09-15T22:27:22.273Z,97999.88
2022-09-15T22:30:25.117Z,98003.81
2022-09-15T22:33:28.346Z,98005.72
2022-09-15T22:36:31.611Z,98012.38
2022-09-15T22:39:57.370Z,98008.09
2022-09-15T22:42:58.500Z,98015.28
2022-09-15T22:46:01.602Z,98001.66
2022-09-15T22:49:04.282Z,98008.03
2022-09-15T22:52:07.164Z,98002.16
2022-09-15T22:55:10.280Z,98004.81
2022-09-15T22:58:14.253Z,98004.53
2022-09-15T23:01:19.319Z,98000.25
2022-09-15T23:04:22.687Z,98009.88
2022-09-15T23:07:25.470Z,98006.41
2022-09-15T23:10:28.408Z,98008.81
2022-09-15T23:13:32.476Z,98011.44
2022-09-15T23:16:35.138Z,98013.25
2022-09-15T23:19:37.938Z,98012.44
2022-09-15T23:22:40.770Z,98009.41
2022-09-15T23:25:44.595Z,98011.84
2022-09-15T23:28:49.272Z,98020.09
2022-09-15T23:31:51.968Z,98003.31
2022-09-15T23:34:55.013Z,98001.41
2022-09-15T23:37:57.630Z,98000.63
2022-09-15T23:41:00.338Z,98009.75
2022-09-15T23:44:04.537Z,98005.91
2022-09-15T23:47:07.651Z,98017.31
2022-09-15T23:50:10.903Z,98012.97
2022-09-15T23:53:13.556Z,98010.59
2022-09-15T23:56:16.168Z,98012.22
2022-09-15T23:59:20.475Z,98013.88
